This is the latest recevied weather packets stored in our database for station/object N7CEE. If no packets are shown the sender has not sent any weather packets the latest 10 day(s).
| Time | Temp. | Humidity | Pressure | Rain* | Wind** | Luminosity | Snow |
|---|---|---|---|---|---|---|---|
| 1777583041 | 18.33° C | 23% | 1019.4 hPa | 0 mm | - | 286 W/m² | - |
| 1777582738 | 20° C | 22% | 1019.4 hPa | 0 mm | - | 206 W/m² | - |
| 1777582433 | 19.44° C | 22% | 1019.3 hPa | 0 mm | - | 956 W/m² | - |
| 1777582127 | 18.89° C | 23% | 1019.4 hPa | 0 mm | - | 653 W/m² | - |
| 1777581826 | 20° C | 20% | 1019.4 hPa | 0 mm | - | 259 W/m² | - |
| 1777581525 | 19.44° C | 21% | 1019.4 hPa | 0 mm | - | 995 W/m² | - |
| 1777581221 | 19.44° C | 21% | 1019.4 hPa | 0 mm | - | 371 W/m² | - |
| 1777580921 | 18.89° C | 22% | 1019.7 hPa | 0 mm | - | 933 W/m² | - |
| 1777580615 | 17.78° C | 22% | 1019.5 hPa | 0 mm | - | 212 W/m² | - |
| 1777580312 | 18.89° C | 22% | 1019.5 hPa | 0 mm | - | 195 W/m² | - |
| 1777580008 | 19.44° C | 22% | 1019.7 hPa | 0 mm | - | 450 W/m² | - |
| 1777579704 | 20.56° C | 20% | 1019.8 hPa | 0 mm | - | 339 W/m² | - |
| 1777579403 | 20° C | 20% | 1020 hPa | 0 mm | - | 953 W/m² | - |
| 1777579098 | 19.44° C | 21% | 1019.7 hPa | 0 mm | - | 977 W/m² | - |
| 1777578792 | 21.11° C | 19% | 1019.7 hPa | 0 mm | - | 795 W/m² | - |
| 1777578488 | 18.33° C | 21% | 1020 hPa | 0 mm | - | 1006 W/m² | - |
| 1777578183 | 18.89° C | 22% | 1019.9 hPa | 0 mm | - | 540 W/m² | - |
| 1777577878 | 20° C | 20% | 1020.4 hPa | 0 mm | - | 224 W/m² | - |
| 1777577574 | 19.44° C | 21% | 1020.3 hPa | 0 mm | - | 950 W/m² | - |
| 1777577272 | 19.44° C | 22% | 1020.3 hPa | 0 mm | - | 936 W/m² | - |
| 1777576967 | 17.78° C | 22% | 1020.3 hPa | 0 mm | - | 909 W/m² | - |
| 1777576664 | 17.78° C | 23% | 1020.4 hPa | 0 mm | - | 918 W/m² | - |
| 1777576364 | 18.33° C | 22% | 1020.7 hPa | 0 mm | - | 918 W/m² | - |
| 1777576060 | 18.89° C | 22% | 1020.7 hPa | 0 mm | - | 905 W/m² | - |
| 1777575757 | 18.33° C | 22% | 1020.7 hPa | 0 mm | - | 859 W/m² | - |
* Rain latest hour (hover to see other rain measurements)
** Current wind speed in m/s (hover to see current wind gust speed)